sensor_id;sensor_type;location;lat;lon;timestamp;pressure;altitude;pressure_sealevel;temperature;humidity
66668;BME280;57205;51.438;-2.006;2022-10-26T00:00:37;99794.34;;;14.78;97.93
66668;BME280;57205;51.438;-2.006;2022-10-26T00:03:02;99777.56;;;14.81;97.94
66668;BME280;57205;51.438;-2.006;2022-10-26T00:05:31;99773.44;;;14.83;98.12
66668;BME280;57205;51.438;-2.006;2022-10-26T00:07:57;99774.09;;;14.89;98.35
66668;BME280;57205;51.438;-2.006;2022-10-26T00:10:23;99775.84;;;14.93;98.17
66668;BME280;57205;51.438;-2.006;2022-10-26T00:12:49;99773.31;;;14.97;98.04
66668;BME280;57205;51.438;-2.006;2022-10-26T00:15:16;99771.91;;;14.99;98.02
66668;BME280;57205;51.438;-2.006;2022-10-26T00:17:42;99776.03;;;15.05;97.88
66668;BME280;57205;51.438;-2.006;2022-10-26T00:20:08;99767.81;;;15.10;97.50
66668;BME280;57205;51.438;-2.006;2022-10-26T00:22:33;99762.44;;;15.10;97.63
66668;BME280;57205;51.438;-2.006;2022-10-26T00:24:59;99753.88;;;15.08;97.89
66668;BME280;57205;51.438;-2.006;2022-10-26T00:27:24;99757.34;;;15.09;97.79
66668;BME280;57205;51.438;-2.006;2022-10-26T00:29:49;99750.38;;;15.08;98.21
66668;BME280;57205;51.438;-2.006;2022-10-26T00:32:15;99747.50;;;15.04;98.16
66668;BME280;57205;51.438;-2.006;2022-10-26T00:34:40;99753.81;;;15.00;98.59
66668;BME280;57205;51.438;-2.006;2022-10-26T00:37:06;99758.72;;;14.98;98.48
66668;BME280;57205;51.438;-2.006;2022-10-26T00:39:31;99758.72;;;14.98;98.79
66668;BME280;57205;51.438;-2.006;2022-10-26T00:41:57;99757.16;;;14.97;98.84
66668;BME280;57205;51.438;-2.006;2022-10-26T00:47:13;99758.72;;;14.98;98.67
66668;BME280;57205;51.438;-2.006;2022-10-26T00:49:39;99764.94;;;14.98;98.43
66668;BME280;57205;51.438;-2.006;2022-10-26T00:52:06;99766.34;;;14.96;98.41
66668;BME280;57205;51.438;-2.006;2022-10-26T00:54:33;99749.72;;;14.94;98.98
66668;BME280;57205;51.438;-2.006;2022-10-26T00:56:58;99754.78;;;14.95;98.86
66668;BME280;57205;51.438;-2.006;2022-10-26T00:59:24;99747.47;;;14.96;98.61
66668;BME280;57205;51.438;-2.006;2022-10-26T01:01:50;99751.28;;;14.95;98.60
66668;BME280;57205;51.438;-2.006;2022-10-26T01:04:16;99751.28;;;14.95;99.16
66668;BME280;57205;51.438;-2.006;2022-10-26T01:06:43;99750.16;;;14.96;98.98
66668;BME280;57205;51.438;-2.006;2022-10-26T01:09:09;99754.47;;;14.97;98.90
66668;BME280;57205;51.438;-2.006;2022-10-26T01:11:36;99756.69;;;14.95;98.61
66668;BME280;57205;51.438;-2.006;2022-10-26T01:14:05;99752.69;;;14.92;98.77
66668;BME280;57205;51.438;-2.006;2022-10-26T01:16:57;99758.41;;;14.91;98.80
66668;BME280;57205;51.438;-2.006;2022-10-26T01:27:59;99749.53;;;14.90;98.73
66668;BME280;57205;51.438;-2.006;2022-10-26T01:30:38;99754.91;;;14.90;98.62
66668;BME280;57205;51.438;-2.006;2022-10-26T01:33:32;99747.31;;;14.92;99.06
66668;BME280;57205;51.438;-2.006;2022-10-26T01:39:09;99747.66;;;14.99;98.56
66668;BME280;57205;51.438;-2.006;2022-10-26T01:41:45;99738.47;;;15.00;98.51
66668;BME280;57205;51.438;-2.006;2022-10-26T01:44:17;99747.34;;;15.01;98.42
66668;BME280;57205;51.438;-2.006;2022-10-26T01:46:47;99740.84;;;15.02;98.28
66668;BME280;57205;51.438;-2.006;2022-10-26T01:49:17;99737.81;;;15.03;98.29
66668;BME280;57205;51.438;-2.006;2022-10-26T01:51:46;99748.59;;;15.03;98.41
66668;BME280;57205;51.438;-2.006;2022-10-26T01:54:12;99737.81;;;15.03;98.67
66668;BME280;57205;51.438;-2.006;2022-10-26T01:56:40;99747.84;;;15.03;98.25
66668;BME280;57205;51.438;-2.006;2022-10-26T02:02:27;99727.25;;;15.07;98.41
66668;BME280;57205;51.438;-2.006;2022-10-26T02:08:14;99724.34;;;15.03;98.51
66668;BME280;57205;51.438;-2.006;2022-10-26T02:16:06;99709.31;;;15.02;99.87
66668;BME280;57205;51.438;-2.006;2022-10-26T02:18:52;99711.84;;;15.07;100.00
66668;BME280;57205;51.438;-2.006;2022-10-26T02:21:26;99715.50;;;15.03;100.00
66668;BME280;57205;51.438;-2.006;2022-10-26T02:23:56;99720.41;;;15.01;100.00
66668;BME280;57205;51.438;-2.006;2022-10-26T02:26:25;99708.03;;;15.00;100.00
66668;BME280;57205;51.438;-2.006;2022-10-26T02:28:55;99714.53;;;14.99;100.00
66668;BME280;57205;51.438;-2.006;2022-10-26T02:31:22;99718.81;;;15.00;100.00
66668;BME280;57205;51.438;-2.006;2022-10-26T02:33:49;99724.19;;;15.00;100.00
66668;BME280;57205;51.438;-2.006;2022-10-26T02:36:22;99720.53;;;14.96;100.00
66668;BME280;57205;51.438;-2.006;2022-10-26T02:38:50;99718.66;;;14.96;100.00
66668;BME280;57205;51.438;-2.006;2022-10-26T02:41:19;99718.47;;;14.93;100.00
66668;BME280;57205;51.438;-2.006;2022-10-26T02:43:56;99721.81;;;14.90;100.00
66668;BME280;57205;51.438;-2.006;2022-10-26T02:46:25;99715.63;;;14.81;100.00
66668;BME280;57205;51.438;-2.006;2022-10-26T02:48:52;99724.16;;;14.74;100.00
66668;BME280;57205;51.438;-2.006;2022-10-26T02:54:29;99728.56;;;14.61;100.00
66668;BME280;57205;51.438;-2.006;2022-10-26T02:57:12;99730.28;;;14.57;100.00
66668;BME280;57205;51.438;-2.006;2022-10-26T02:59:42;99724.41;;;14.55;100.00
66668;BME280;57205;51.438;-2.006;2022-10-26T03:02:10;99740.56;;;14.55;100.00
66668;BME280;57205;51.438;-2.006;2022-10-26T03:04:36;99746.09;;;14.50;100.00
66668;BME280;57205;51.438;-2.006;2022-10-26T03:07:01;99749.09;;;14.49;100.00
66668;BME280;57205;51.438;-2.006;2022-10-26T03:09:27;99755.56;;;14.48;100.00
66668;BME280;57205;51.438;-2.006;2022-10-26T03:11:52;99753.03;;;14.51;100.00
66668;BME280;57205;51.438;-2.006;2022-10-26T03:14:18;99759.06;;;14.48;100.00
66668;BME280;57205;51.438;-2.006;2022-10-26T03:16:43;99750.34;;;14.51;100.00
66668;BME280;57205;51.438;-2.006;2022-10-26T03:19:09;99749.38;;;14.47;100.00
66668;BME280;57205;51.438;-2.006;2022-10-26T03:21:34;99744.63;;;14.44;100.00
66668;BME280;57205;51.438;-2.006;2022-10-26T03:24:00;99739.41;;;14.39;100.00
66668;BME280;57205;51.438;-2.006;2022-10-26T03:26:25;99748.06;;;14.36;100.00
66668;BME280;57205;51.438;-2.006;2022-10-26T03:28:50;99743.00;;;14.35;100.00
66668;BME280;57205;51.438;-2.006;2022-10-26T03:31:16;99758.22;;;14.39;100.00
66668;BME280;57205;51.438;-2.006;2022-10-26T03:33:41;99769.31;;;14.38;100.00
66668;BME280;57205;51.438;-2.006;2022-10-26T03:36:07;99763.13;;;14.37;100.00
66668;BME280;57205;51.438;-2.006;2022-10-26T03:38:33;99761.34;;;14.33;100.00
66668;BME280;57205;51.438;-2.006;2022-10-26T03:40:58;99749.63;;;14.29;100.00
66668;BME280;57205;51.438;-2.006;2022-10-26T03:43:25;99749.94;;;14.27;99.98
66668;BME280;57205;51.438;-2.006;2022-10-26T03:45:50;99748.47;;;14.21;99.32
66668;BME280;57205;51.438;-2.006;2022-10-26T03:48:15;99748.09;;;14.14;99.38
66668;BME280;57205;51.438;-2.006;2022-10-26T03:50:41;99747.13;;;14.10;99.08
66668;BME280;57205;51.438;-2.006;2022-10-26T03:53:07;99765.28;;;14.05;99.01
66668;BME280;57205;51.438;-2.006;2022-10-26T03:55:32;99757.66;;;13.98;98.89
66668;BME280;57205;51.438;-2.006;2022-10-26T03:57:58;99764.13;;;13.97;99.21
66668;BME280;57205;51.438;-2.006;2022-10-26T04:00:23;99765.38;;;13.91;98.83
66668;BME280;57205;51.438;-2.006;2022-10-26T04:02:56;99777.03;;;13.87;98.88
66668;BME280;57205;51.438;-2.006;2022-10-26T04:05:24;99787.13;;;13.81;99.22
66668;BME280;57205;51.438;-2.006;2022-10-26T04:07:57;99790.00;;;13.85;99.64
66668;BME280;57205;51.438;-2.006;2022-10-26T04:10:24;99798.22;;;13.88;99.82
66668;BME280;57205;51.438;-2.006;2022-10-26T04:12:50;99792.25;;;13.91;99.67
66668;BME280;57205;51.438;-2.006;2022-10-26T04:15:16;99791.63;;;13.94;99.52
66668;BME280;57205;51.438;-2.006;2022-10-26T04:17:41;99780.25;;;13.97;99.87
66668;BME280;57205;51.438;-2.006;2022-10-26T04:20:07;99772.09;;;14.02;99.72
66668;BME280;57205;51.438;-2.006;2022-10-26T04:22:33;99774.16;;;14.05;99.50
66668;BME280;57205;51.438;-2.006;2022-10-26T04:24:59;99763.88;;;14.07;99.00
66668;BME280;57205;51.438;-2.006;2022-10-26T04:27:24;99768.19;;;14.08;98.88
66668;BME280;57205;51.438;-2.006;2022-10-26T04:29:50;99773.34;;;14.05;98.93
66668;BME280;57205;51.438;-2.006;2022-10-26T04:32:15;99780.47;;;14.01;98.84
66668;BME280;57205;51.438;-2.006;2022-10-26T04:34:41;99785.63;;;13.97;98.86
66668;BME280;57205;51.438;-2.006;2022-10-26T04:37:07;99790.06;;;13.93;99.05
66668;BME280;57205;51.438;-2.006;2022-10-26T04:39:32;99786.41;;;13.89;99.52
66668;BME280;57205;51.438;-2.006;2022-10-26T04:41:57;99793.47;;;13.85;99.89
66668;BME280;57205;51.438;-2.006;2022-10-26T04:44:23;99797.88;;;13.81;100.00
66668;BME280;57205;51.438;-2.006;2022-10-26T04:46:48;99794.69;;;13.79;100.00
66668;BME280;57205;51.438;-2.006;2022-10-26T04:49:14;99797.88;;;13.81;100.00
66668;BME280;57205;51.438;-2.006;2022-10-26T04:51:39;99800.06;;;13.79;100.00
66668;BME280;57205;51.438;-2.006;2022-10-26T04:54:04;99802.44;;;13.81;100.00
66668;BME280;57205;51.438;-2.006;2022-10-26T04:56:30;99803.75;;;13.83;100.00
66668;BME280;57205;51.438;-2.006;2022-10-26T04:58:55;99802.66;;;13.84;100.00
66668;BME280;57205;51.438;-2.006;2022-10-26T05:01:21;99803.44;;;13.85;100.00
66668;BME280;57205;51.438;-2.006;2022-10-26T05:03:53;99801.22;;;13.87;100.00
66668;BME280;57205;51.438;-2.006;2022-10-26T05:06:19;99816.66;;;13.95;100.00
66668;BME280;57205;51.438;-2.006;2022-10-26T05:08:45;99821.72;;;13.96;100.00
66668;BME280;57205;51.438;-2.006;2022-10-26T05:11:10;99829.25;;;14.08;100.00
66668;BME280;57205;51.438;-2.006;2022-10-26T05:13:36;99814.19;;;14.07;100.00
66668;BME280;57205;51.438;-2.006;2022-10-26T05:16:01;99814.00;;;14.03;100.00
66668;BME280;57205;51.438;-2.006;2022-10-26T05:18:27;99818.63;;;14.03;100.00
66668;BME280;57205;51.438;-2.006;2022-10-26T05:20:52;99819.69;;;14.02;100.00
66668;BME280;57205;51.438;-2.006;2022-10-26T05:23:18;99811.13;;;14.00;100.00
66668;BME280;57205;51.438;-2.006;2022-10-26T05:25:44;99812.75;;;14.01;100.00
66668;BME280;57205;51.438;-2.006;2022-10-26T05:28:11;99815.13;;;14.02;100.00
66668;BME280;57205;51.438;-2.006;2022-10-26T05:30:40;99813.25;;;14.03;100.00
66668;BME280;57205;51.438;-2.006;2022-10-26T05:33:11;99814.81;;;14.04;100.00
66668;BME280;57205;51.438;-2.006;2022-10-26T05:35:37;99820.88;;;14.09;100.00
66668;BME280;57205;51.438;-2.006;2022-10-26T05:38:14;99820.25;;;14.12;100.00
66668;BME280;57205;51.438;-2.006;2022-10-26T05:40:48;99825.38;;;14.22;100.00
66668;BME280;57205;51.438;-2.006;2022-10-26T05:43:13;99820.97;;;14.26;100.00
66668;BME280;57205;51.438;-2.006;2022-10-26T05:45:39;99835.94;;;14.32;100.00
66668;BME280;57205;51.438;-2.006;2022-10-26T05:48:04;99823.44;;;14.36;100.00
66668;BME280;57205;51.438;-2.006;2022-10-26T05:50:30;99829.31;;;14.38;100.00
66668;BME280;57205;51.438;-2.006;2022-10-26T05:52:55;99828.22;;;14.39;100.00
66668;BME280;57205;51.438;-2.006;2022-10-26T05:55:21;99827.72;;;14.37;100.00
66668;BME280;57205;51.438;-2.006;2022-10-26T05:57:47;99830.91;;;14.39;100.00
66668;BME280;57205;51.438;-2.006;2022-10-26T06:00:22;99826.78;;;14.42;100.00
66668;BME280;57205;51.438;-2.006;2022-10-26T06:05:53;99835.00;;;14.37;100.00
66668;BME280;57205;51.438;-2.006;2022-10-26T06:08:21;99830.91;;;14.39;100.00
66668;BME280;57205;51.438;-2.006;2022-10-26T06:10:47;99820.91;;;14.40;100.00
66668;BME280;57205;51.438;-2.006;2022-10-26T06:13:13;99825.53;;;14.39;100.00
66668;BME280;57205;51.438;-2.006;2022-10-26T06:32:14;99821.94;;;14.52;100.00
66668;BME280;57205;51.438;-2.006;2022-10-26T06:34:44;99819.59;;;14.59;100.00
66668;BME280;57205;51.438;-2.006;2022-10-26T06:37:11;99837.06;;;14.62;100.00
66668;BME280;57205;51.438;-2.006;2022-10-26T06:39:40;99834.34;;;14.62;100.00
66668;BME280;57205;51.438;-2.006;2022-10-26T06:42:08;99846.53;;;14.59;100.00
66668;BME280;57205;51.438;-2.006;2022-10-26T06:44:34;99845.72;;;14.59;100.00
66668;BME280;57205;51.438;-2.006;2022-10-26T06:47:14;99844.75;;;14.55;100.00
66668;BME280;57205;51.438;-2.006;2022-10-26T06:52:52;99855.84;;;14.53;100.00
66668;BME280;57205;51.438;-2.006;2022-10-26T06:55:22;99861.72;;;14.55;100.00
66668;BME280;57205;51.438;-2.006;2022-10-26T06:57:48;99869.28;;;14.53;100.00
66668;BME280;57205;51.438;-2.006;2022-10-26T07:02:44;99877.06;;;14.55;100.00
66668;BME280;57205;51.438;-2.006;2022-10-26T07:05:09;99885.63;;;14.57;100.00
66668;BME280;57205;51.438;-2.006;2022-10-26T07:07:41;99879.47;;;14.56;100.00
66668;BME280;57205;51.438;-2.006;2022-10-26T07:10:08;99878.97;;;14.54;100.00
66668;BME280;57205;51.438;-2.006;2022-10-26T07:12:34;99862.34;;;14.52;100.00
66668;BME280;57205;51.438;-2.006;2022-10-26T07:15:00;99881.94;;;14.53;100.00
66668;BME280;57205;51.438;-2.006;2022-10-26T07:17:25;99875.78;;;14.52;100.00
66668;BME280;57205;51.438;-2.006;2022-10-26T07:19:53;99890.25;;;14.56;100.00
66668;BME280;57205;51.438;-2.006;2022-10-26T07:22:19;99894.81;;;14.56;100.00
66668;BME280;57205;51.438;-2.006;2022-10-26T07:24:44;99898.00;;;14.58;100.00
66668;BME280;57205;51.438;-2.006;2022-10-26T07:27:14;99898.50;;;14.60;100.00
66668;BME280;57205;51.438;-2.006;2022-10-26T07:29:39;99909.94;;;14.65;100.00
66668;BME280;57205;51.438;-2.006;2022-10-26T07:32:05;99906.59;;;14.68;100.00
66668;BME280;57205;51.438;-2.006;2022-10-26T07:34:30;99899.50;;;14.73;100.00
66668;BME280;57205;51.438;-2.006;2022-10-26T07:36:58;99910.78;;;14.75;100.00
66668;BME280;57205;51.438;-2.006;2022-10-26T07:39:24;99913.63;;;14.78;100.00
66668;BME280;57205;51.438;-2.006;2022-10-26T07:41:49;99922.22;;;14.80;100.00
66668;BME280;57205;51.438;-2.006;2022-10-26T07:44:15;99921.56;;;14.83;100.00
66668;BME280;57205;51.438;-2.006;2022-10-26T07:46:40;99923.03;;;14.89;100.00
66668;BME280;57205;51.438;-2.006;2022-10-26T07:49:06;99921.81;;;14.95;100.00
66668;BME280;57205;51.438;-2.006;2022-10-26T07:51:31;99928.63;;;15.01;100.00
66668;BME280;57205;51.438;-2.006;2022-10-26T07:53:57;99940.56;;;15.09;100.00
66668;BME280;57205;51.438;-2.006;2022-10-26T07:56:22;99940.75;;;15.12;100.00
66668;BME280;57205;51.438;-2.006;2022-10-26T07:58:51;99953.13;;;15.13;100.00
66668;BME280;57205;51.438;-2.006;2022-10-26T08:01:16;99963.59;;;15.15;99.58
66668;BME280;57205;51.438;-2.006;2022-10-26T08:03:42;99965.19;;;15.16;99.24
66668;BME280;57205;51.438;-2.006;2022-10-26T08:06:07;99976.47;;;15.18;98.72
66668;BME280;57205;51.438;-2.006;2022-10-26T08:08:35;99978.53;;;15.21;97.87
66668;BME280;57205;51.438;-2.006;2022-10-26T08:11:00;99973.97;;;15.30;97.62
66668;BME280;57205;51.438;-2.006;2022-10-26T08:13:26;99983.88;;;15.43;97.18
66668;BME280;57205;51.438;-2.006;2022-10-26T08:16:01;99991.38;;;15.54;95.49
66668;BME280;57205;51.438;-2.006;2022-10-26T08:18:27;99998.84;;;15.57;93.40
66668;BME280;57205;51.438;-2.006;2022-10-26T08:20:53;100015.81;;;15.58;92.49
66668;BME280;57205;51.438;-2.006;2022-10-26T08:23:21;100014.38;;;15.52;92.23
66668;BME280;57205;51.438;-2.006;2022-10-26T08:25:46;100015.97;;;15.53;91.22
66668;BME280;57205;51.438;-2.006;2022-10-26T08:28:12;100023.56;;;15.51;90.39
66668;BME280;57205;51.438;-2.006;2022-10-26T08:30:37;100023.09;;;15.49;89.86
66668;BME280;57205;51.438;-2.006;2022-10-26T08:33:05;100018.97;;;15.51;89.58
66668;BME280;57205;51.438;-2.006;2022-10-26T08:35:31;100018.34;;;15.54;89.21
66668;BME280;57205;51.438;-2.006;2022-10-26T08:37:57;100017.09;;;16.08;85.55
66668;BME280;57205;51.438;-2.006;2022-10-26T08:40:35;100010.34;;;16.53;83.83
66668;BME280;57205;51.438;-2.006;2022-10-26T08:43:21;100015.13;;;17.37;79.72
66668;BME280;57205;51.438;-2.006;2022-10-26T08:46:12;100012.63;;;18.28;74.35
66668;BME280;57205;51.438;-2.006;2022-10-26T08:51:39;100030.75;;;19.55;69.31
66668;BME280;57205;51.438;-2.006;2022-10-26T08:56:48;100029.97;;;20.26;65.35
66668;BME280;57205;51.438;-2.006;2022-10-26T09:01:40;100039.91;;;20.34;64.16
66668;BME280;57205;51.438;-2.006;2022-10-26T09:04:10;100036.81;;;20.60;64.08
66668;BME280;57205;51.438;-2.006;2022-10-26T09:12:32;100054.00;;;21.04;61.08
66668;BME280;57205;51.438;-2.006;2022-10-26T09:17:45;100062.78;;;21.56;60.11
66668;BME280;57205;51.438;-2.006;2022-10-26T09:23:09;100076.78;;;21.86;58.78
66668;BME280;57205;51.438;-2.006;2022-10-26T09:25:41;100075.28;;;22.19;56.78
66668;BME280;57205;51.438;-2.006;2022-10-26T09:28:14;100073.09;;;21.94;57.24
66668;BME280;57205;51.438;-2.006;2022-10-26T09:30:40;100085.31;;;21.84;57.79
66668;BME280;57205;51.438;-2.006;2022-10-26T09:33:14;100082.31;;;21.74;57.41
66668;BME280;57205;51.438;-2.006;2022-10-26T09:35:58;100097.69;;;21.66;57.87
66668;BME280;57205;51.438;-2.006;2022-10-26T09:38:32;100106.91;;;21.77;57.41
66668;BME280;57205;51.438;-2.006;2022-10-26T09:41:11;100103.50;;;21.80;57.09
66668;BME280;57205;51.438;-2.006;2022-10-26T09:43:57;100103.81;;;21.48;57.94
66668;BME280;57205;51.438;-2.006;2022-10-26T09:46:30;100096.25;;;21.13;57.87
66668;BME280;57205;51.438;-2.006;2022-10-26T09:49:00;100113.94;;;21.07;58.33
66668;BME280;57205;51.438;-2.006;2022-10-26T09:51:37;100109.81;;;20.86;58.28
66668;BME280;57205;51.438;-2.006;2022-10-26T09:54:17;100126.88;;;20.59;59.86
66668;BME280;57205;51.438;-2.006;2022-10-26T09:56:53;100133.22;;;20.51;60.79
66668;BME280;57205;51.438;-2.006;2022-10-26T09:59:21;100132.75;;;20.49;61.10
66668;BME280;57205;51.438;-2.006;2022-10-26T10:01:47;100136.75;;;20.51;62.21
66668;BME280;57205;51.438;-2.006;2022-10-26T10:06:39;100153.41;;;19.81;63.20
66668;BME280;57205;51.438;-2.006;2022-10-26T10:11:50;100154.03;;;18.92;65.63
66668;BME280;57205;51.438;-2.006;2022-10-26T10:16:57;100165.91;;;18.58;68.23
66668;BME280;57205;51.438;-2.006;2022-10-26T10:19:30;100175.06;;;18.45;68.78
66668;BME280;57205;51.438;-2.006;2022-10-26T10:21:58;100168.72;;;18.32;68.86
66668;BME280;57205;51.438;-2.006;2022-10-26T10:24:32;100171.16;;;18.25;69.18
66668;BME280;57205;51.438;-2.006;2022-10-26T10:27:03;100175.63;;;18.21;69.24
66668;BME280;57205;51.438;-2.006;2022-10-26T10:29:39;100173.84;;;18.25;68.81
66668;BME280;57205;51.438;-2.006;2022-10-26T10:32:05;100179.66;;;18.53;68.26
66668;BME280;57205;51.438;-2.006;2022-10-26T10:34:31;100187.16;;;18.77;67.18
66668;BME280;57205;51.438;-2.006;2022-10-26T10:36:58;100200.44;;;18.99;66.96
66668;BME280;57205;51.438;-2.006;2022-10-26T10:39:38;100195.66;;;18.96;66.60
66668;BME280;57205;51.438;-2.006;2022-10-26T10:42:20;100205.69;;;18.95;66.24
66668;BME280;57205;51.438;-2.006;2022-10-26T10:44:50;100211.66;;;18.89;64.82
66668;BME280;57205;51.438;-2.006;2022-10-26T10:47:23;100210.03;;;18.88;64.99
66668;BME280;57205;51.438;-2.006;2022-10-26T10:50:01;100220.25;;;18.91;65.56
66668;BME280;57205;51.438;-2.006;2022-10-26T10:52:31;100222.63;;;18.92;64.32
66668;BME280;57205;51.438;-2.006;2022-10-26T10:55:09;100220.88;;;18.88;65.37
66668;BME280;57205;51.438;-2.006;2022-10-26T11:00:26;100235.25;;;18.88;65.88
66668;BME280;57205;51.438;-2.006;2022-10-26T11:10:45;100248.34;;;18.57;65.67
66668;BME280;57205;51.438;-2.006;2022-10-26T11:13:20;100245.28;;;18.59;66.77
66668;BME280;57205;51.438;-2.006;2022-10-26T11:15:49;100243.72;;;18.49;66.43
66668;BME280;57205;51.438;-2.006;2022-10-26T11:18:32;100247.25;;;18.49;66.66
66668;BME280;57205;51.438;-2.006;2022-10-26T11:21:05;100249.97;;;18.49;67.43
66668;BME280;57205;51.438;-2.006;2022-10-26T11:23:42;100261.31;;;18.43;66.55
66668;BME280;57205;51.438;-2.006;2022-10-26T11:26:19;100253.66;;;18.36;66.93
66668;BME280;57205;51.438;-2.006;2022-10-26T11:31:42;100258.16;;;18.15;68.74
66668;BME280;57205;51.438;-2.006;2022-10-26T11:36:52;100246.59;;;17.89;68.52
66668;BME280;57205;51.438;-2.006;2022-10-26T11:39:27;100261.44;;;17.83;69.94
66668;BME280;57205;51.438;-2.006;2022-10-26T11:42:21;100268.91;;;17.69;71.21
66668;BME280;57205;51.438;-2.006;2022-10-26T11:45:00;100268.25;;;17.81;72.68
66668;BME280;57205;51.438;-2.006;2022-10-26T11:47:32;100267.28;;;17.94;72.14
66668;BME280;57205;51.438;-2.006;2022-10-26T11:52:55;100286.22;;;18.02;70.89
66668;BME280;57205;51.438;-2.006;2022-10-26T11:55:22;100300.09;;;18.01;69.31
66668;BME280;57205;51.438;-2.006;2022-10-26T11:57:49;100296.41;;;17.97;69.37
66668;BME280;57205;51.438;-2.006;2022-10-26T12:00:18;100300.09;;;18.01;69.59
66668;BME280;57205;51.438;-2.006;2022-10-26T12:03:05;100286.56;;;18.09;69.76
66668;BME280;57205;51.438;-2.006;2022-10-26T12:08:10;100304.19;;;18.15;67.70
66668;BME280;57205;51.438;-2.006;2022-10-26T12:10:39;100309.94;;;18.14;67.88
66668;BME280;57205;51.438;-2.006;2022-10-26T12:15:47;100307.72;;;18.16;68.24
66668;BME280;57205;51.438;-2.006;2022-10-26T12:18:20;100329.22;;;18.12;68.08
66668;BME280;57205;51.438;-2.006;2022-10-26T12:23:17;100334.94;;;18.19;67.74
66668;BME280;57205;51.438;-2.006;2022-10-26T12:25:43;100342.59;;;18.17;68.22
66668;BME280;57205;51.438;-2.006;2022-10-26T12:30:52;100341.00;;;18.16;68.59
66668;BME280;57205;51.438;-2.006;2022-10-26T12:33:28;100343.72;;;18.16;68.60
66668;BME280;57205;51.438;-2.006;2022-10-26T12:35:53;100350.25;;;18.24;68.38
66668;BME280;57205;51.438;-2.006;2022-10-26T12:48:51;100358.06;;;18.42;66.55
66668;BME280;57205;51.438;-2.006;2022-10-26T12:56:28;100370.16;;;18.11;66.30
66668;BME280;57205;51.438;-2.006;2022-10-26T13:04:12;100388.00;;;17.86;65.91
66668;BME280;57205;51.438;-2.006;2022-10-26T13:07:05;100383.56;;;17.82;66.48
66668;BME280;57205;51.438;-2.006;2022-10-26T13:09:37;100381.78;;;17.77;67.19
66668;BME280;57205;51.438;-2.006;2022-10-26T13:12:02;100390.41;;;17.71;67.15
66668;BME280;57205;51.438;-2.006;2022-10-26T13:14:35;100388.31;;;17.68;66.16
66668;BME280;57205;51.438;-2.006;2022-10-26T13:17:03;100387.66;;;17.62;67.06
66668;BME280;57205;51.438;-2.006;2022-10-26T13:19:41;100403.09;;;17.53;67.67
66668;BME280;57205;51.438;-2.006;2022-10-26T13:22:12;100404.50;;;17.50;68.11
66668;BME280;57205;51.438;-2.006;2022-10-26T13:24:37;100406.44;;;17.50;68.74
66668;BME280;57205;51.438;-2.006;2022-10-26T13:32:20;100417.00;;;17.38;67.73
66668;BME280;57205;51.438;-2.006;2022-10-26T13:34:46;100410.19;;;17.40;66.90
66668;BME280;57205;51.438;-2.006;2022-10-26T13:37:15;100413.22;;;17.39;66.25
66668;BME280;57205;51.438;-2.006;2022-10-26T13:39:44;100408.91;;;17.46;66.21
66668;BME280;57205;51.438;-2.006;2022-10-26T13:42:23;100419.28;;;17.44;65.61
66668;BME280;57205;51.438;-2.006;2022-10-26T13:47:27;100419.47;;;17.48;65.53
66668;BME280;57205;51.438;-2.006;2022-10-26T13:49:54;100417.97;;;17.42;65.44
66668;BME280;57205;51.438;-2.006;2022-10-26T13:52:27;100423.38;;;17.42;65.77
66668;BME280;57205;51.438;-2.006;2022-10-26T13:54:54;100417.66;;;17.43;66.03
66668;BME280;57205;51.438;-2.006;2022-10-26T13:57:22;100435.50;;;17.44;66.20
66668;BME280;57205;51.438;-2.006;2022-10-26T13:59:52;100431.19;;;17.43;66.03
66668;BME280;57205;51.438;-2.006;2022-10-26T14:02:21;100433.56;;;17.45;66.34
66668;BME280;57205;51.438;-2.006;2022-10-26T14:04:50;100446.31;;;17.44;65.01
66668;BME280;57205;51.438;-2.006;2022-10-26T14:07:39;100430.69;;;17.41;65.00
66668;BME280;57205;51.438;-2.006;2022-10-26T14:10:02;100433.72;;;17.40;65.12
66668;BME280;57205;51.438;-2.006;2022-10-26T14:12:28;100434.53;;;17.40;65.30
66668;BME280;57205;51.438;-2.006;2022-10-26T14:14:56;100436.75;;;17.47;64.56
66668;BME280;57205;51.438;-2.006;2022-10-26T14:17:24;100439.19;;;17.48;64.53
66668;BME280;57205;51.438;-2.006;2022-10-26T14:19:49;100442.53;;;17.54;65.51
66668;BME280;57205;51.438;-2.006;2022-10-26T14:22:20;100441.94;;;17.57;65.14
66668;BME280;57205;51.438;-2.006;2022-10-26T14:27:37;100443.50;;;17.58;65.87
66668;BME280;57205;51.438;-2.006;2022-10-26T14:30:13;100449.88;;;17.53;66.12
66668;BME280;57205;51.438;-2.006;2022-10-26T14:32:44;100460.63;;;17.45;66.63
66668;BME280;57205;51.438;-2.006;2022-10-26T14:35:10;100454.25;;;17.41;66.86
66668;BME280;57205;51.438;-2.006;2022-10-26T14:40:01;100457.41;;;17.26;68.47
66668;BME280;57205;51.438;-2.006;2022-10-26T14:42:28;100454.81;;;17.21;69.12
66668;BME280;57205;51.438;-2.006;2022-10-26T14:44:55;100463.41;;;17.23;68.48
66668;BME280;57205;51.438;-2.006;2022-10-26T14:47:26;100460.53;;;17.19;68.30
66668;BME280;57205;51.438;-2.006;2022-10-26T14:49:51;100477.06;;;17.18;69.55
66668;BME280;57205;51.438;-2.006;2022-10-26T14:52:21;100464.66;;;17.17;69.48
66668;BME280;57205;51.438;-2.006;2022-10-26T14:57:43;100472.41;;;17.10;69.06
66668;BME280;57205;51.438;-2.006;2022-10-26T15:00:16;100481.47;;;17.05;69.24
66668;BME280;57205;51.438;-2.006;2022-10-26T15:02:45;100479.81;;;16.96;68.92
66668;BME280;57205;51.438;-2.006;2022-10-26T15:07:46;100486.22;;;17.00;69.62
66668;BME280;57205;51.438;-2.006;2022-10-26T15:12:56;100480.31;;;16.98;70.07
66668;BME280;57205;51.438;-2.006;2022-10-26T15:15:21;100485.06;;;16.92;69.60
66668;BME280;57205;51.438;-2.006;2022-10-26T15:17:52;100488.97;;;16.86;69.84
66668;BME280;57205;51.438;-2.006;2022-10-26T15:20:22;100486.69;;;16.80;69.96
66668;BME280;57205;51.438;-2.006;2022-10-26T15:22:58;100494.34;;;16.78;70.22
66668;BME280;57205;51.438;-2.006;2022-10-26T15:25:24;100495.56;;;16.72;70.61